Allure of the Seas — C6XS8 — position and weather

sailwx.info

Track history (hours):
 
Tides and Currents Weather Stations Pressure Air Temp Water Temp Dewpoint Dewpoint Depression Visibility Wind Speed Wind Dir Waves Ship Positions

Allure of the Seas

Last reported at 2017-May-25 00:00 UTC. Time now 2017-May-25 10:35 UTC.
Position N 18°36' W 077°54'.

Length 362 m; draft 9.3 m.

Type: Passenger vessel. MMSI: 311020700.

Wind from 110 at 15 knots

Barometer 1013.0 mb
Air temperature 28.0 ° C
Visibility: greater than 5.4 NM
Dewpoint 25.2 ° C
Water temperature 28.0 ° C

Date/timePositionNaut miles runAvg speedWind from/ knotsBaromVisibWave heightAir tempDewpointWater temp
2017-May-25 00:00N 18°36' W 077°54'27211.3 110 / 151013.0 5.4 28.025.228.0
2017-May-24 00:00N 19°54' W 073°18'120 5.0 090 / 81016.0 5.4 27.024.129.0
2017-May-23 00:00N 21°06' W 075°00'10216.9 090 / 151016.010.8 26.021.528.0
2017-May-22 18:00N 21°42' W 076°42'9916.6 050 / 171017.3 28.022.128.7
2017-May-22 12:00N 22°36' W 078°12'19015.8 100 / 181018.010.8 25.022.028.0
2017-May-22 00:00N 25°30' W 079°36'1223.6 090 / 201018.010.8 27.021.028.0
2017-May-21 23:28N 25°42' W 079°38'1314.9
2017-May-21 22:36N 25°53' W 079°46'216.7
2017-May-21 22:30N 25°54' W 079°48'815.9
2017-May-21 22:00N 25°58' W 079°55'815.7
2017-May-21 21:30N 26°04' W 080°01'510.2
2017-May-21 21:00N 26°06' W 080°06'1 1.3
2017-May-21 20:25N 26°05' W 080°07'0 0.0
2017-May-21 19:52N 26°05' W 080°07'0 0.0
2017-May-21 19:25N 26°05' W 080°07'0 0.0
2017-May-21 18:55N 26°05' W 080°07'0 0.0
2017-May-21 18:25N 26°05' W 080°07'0 0.0
2017-May-21 17:52N 26°05' W 080°07'0 0.0
2017-May-21 17:28N 26°05' W 080°07'0 0.0
2017-May-21 16:58N 26°05' W 080°07'0 0.0
2017-May-21 16:28N 26°05' W 080°07'0 0.0
2017-May-21 15:58N 26°05' W 080°07'0 0.0
2017-May-21 15:28N 26°05' W 080°07'0 0.0
2017-May-21 14:58N 26°05' W 080°07'0 0.0
2017-May-21 14:01N 26°05' W 080°07'0 0.0
2017-May-21 13:28N 26°05' W 080°07'0 0.0
2017-May-21 12:58N 26°05' W 080°07'0 0.0
2017-May-21 12:28N 26°05' W 080°07'0 0.0
2017-May-21 11:58N 26°05' W 080°07'0 0.0
2017-May-21 11:28N 26°05' W 080°07'0 0.0
2017-May-21 10:58N 26°05' W 080°07'0 0.0
2017-May-21 10:19N 26°05' W 080°07'0 0.0
2017-May-21 09:55N 26°05' W 080°07'1 3.0
2017-May-21 09:31N 26°06' W 080°06'611.4
2017-May-21 09:00N 26°06' W 079°60'714.7
2017-May-21 08:30N 26°07' W 079°51'816.3
2017-May-21 08:00N 26°08' W 079°42'918.1
2017-May-21 07:30N 26°09' W 079°32'34517.7
2017-May-20 12:00N 24°06' W 073°36'21918.3 060 / 181018.010.8 26.023.128.0
2017-May-20 00:00N 22°12' W 070°12'9816.3 060 / 201018.010.8 26.023.128.0
2017-May-19 18:00N 21°48' W 068°30'13923.2 050 / 131017.7 27.522.429.5
2017-May-19 12:00N 20°18' W 066°36'22419.6 080 / 171017.010.8 25.022.028.0
2017-May-19 00:31N 18°01' W 063°28'120.1
2017-May-19 00:29N 18°00' W 063°28'1420.1
2017-May-18 23:48N 17°50' W 063°19'619.9
2017-May-18 23:30N 17°45' W 063°15'8 0.5
2017-May-18 08:08N 17°40' W 063°08'312.9
2017-May-18 07:54N 17°42' W 063°10'512.7
2017-May-18 07:30N 17°44' W 063°15'1013.7
2017-May-18 06:46N 17°48' W 063°25'1016.0
2017-May-18 06:11N 17°52' W 063°34'315.6
2017-May-18 06:00N 17°53' W 063°37'103 5.7
2017-May-17 12:00N 18°30' W 065°18'34419.1 090 / 221017.010.8 25.023.529.0
2017-May-16 18:00N 21°48' W 070°18'   030 / 281017.1 25.0 28.5
Track history (hours):
 
Tides and Currents Weather Stations Pressure Air Temp Water Temp Dewpoint Dewpoint Depression Visibility Wind Speed Wind Dir Waves Ship Positions

Allure of the Seas

Last reported at 2017-May-25 00:00 UTC. Time now 2017-May-25 10:35 UTC.
Position N 18°36' W 077°54'.

Length 362 m; draft 9.3 m.

Type: Passenger vessel. MMSI: 311020700.

Wind from 110 at 15 knots

Barometer 1013.0 mb
Air temperature 28.0 ° C
Visibility: greater than 5.4 NM
Dewpoint 25.2 ° C
Water temperature 28.0 ° C

Date/timePositionNaut miles runAvg speedWind from/ knotsBaromVisibWave heightAir tempDewpointWater temp
2017-May-25 00:00N 18°36' W 077°54'27211.3 110 / 151013.0 5.4 28.025.228.0
2017-May-24 00:00N 19°54' W 073°18'120 5.0 090 / 81016.0 5.4 27.024.129.0
2017-May-23 00:00N 21°06' W 075°00'10216.9 090 / 151016.010.8 26.021.528.0
2017-May-22 18:00N 21°42' W 076°42'9916.6 050 / 171017.3 28.022.128.7
2017-May-22 12:00N 22°36' W 078°12'19015.8 100 / 181018.010.8 25.022.028.0
2017-May-22 00:00N 25°30' W 079°36'1223.6 090 / 201018.010.8 27.021.028.0
2017-May-21 23:28N 25°42' W 079°38'1314.9
2017-May-21 22:36N 25°53' W 079°46'216.7
2017-May-21 22:30N 25°54' W 079°48'815.9
2017-May-21 22:00N 25°58' W 079°55'815.7
2017-May-21 21:30N 26°04' W 080°01'510.2
2017-May-21 21:00N 26°06' W 080°06'1 1.3
2017-May-21 20:25N 26°05' W 080°07'0 0.0
2017-May-21 19:52N 26°05' W 080°07'0 0.0
2017-May-21 19:25N 26°05' W 080°07'0 0.0
2017-May-21 18:55N 26°05' W 080°07'0 0.0
2017-May-21 18:25N 26°05' W 080°07'0 0.0
2017-May-21 17:52N 26°05' W 080°07'0 0.0
2017-May-21 17:28N 26°05' W 080°07'0 0.0
2017-May-21 16:58N 26°05' W 080°07'0 0.0
2017-May-21 16:28N 26°05' W 080°07'0 0.0
2017-May-21 15:58N 26°05' W 080°07'0 0.0
2017-May-21 15:28N 26°05' W 080°07'0 0.0
2017-May-21 14:58N 26°05' W 080°07'0 0.0
2017-May-21 14:01N 26°05' W 080°07'0 0.0
2017-May-21 13:28N 26°05' W 080°07'0 0.0
2017-May-21 12:58N 26°05' W 080°07'0 0.0
2017-May-21 12:28N 26°05' W 080°07'0 0.0
2017-May-21 11:58N 26°05' W 080°07'0 0.0
2017-May-21 11:28N 26°05' W 080°07'0 0.0
2017-May-21 10:58N 26°05' W 080°07'0 0.0
2017-May-21 10:19N 26°05' W 080°07'0 0.0
2017-May-21 09:55N 26°05' W 080°07'1 3.0
2017-May-21 09:31N 26°06' W 080°06'611.4
2017-May-21 09:00N 26°06' W 079°60'714.7
2017-May-21 08:30N 26°07' W 079°51'816.3
2017-May-21 08:00N 26°08' W 079°42'918.1
2017-May-21 07:30N 26°09' W 079°32'34517.7
2017-May-20 12:00N 24°06' W 073°36'21918.3 060 / 181018.010.8 26.023.128.0
2017-May-20 00:00N 22°12' W 070°12'9816.3 060 / 201018.010.8 26.023.128.0
2017-May-19 18:00N 21°48' W 068°30'13923.2 050 / 131017.7 27.522.429.5
2017-May-19 12:00N 20°18' W 066°36'22419.6 080 / 171017.010.8 25.022.028.0
2017-May-19 00:31N 18°01' W 063°28'120.1
2017-May-19 00:29N 18°00' W 063°28'1420.1
2017-May-18 23:48N 17°50' W 063°19'619.9
2017-May-18 23:30N 17°45' W 063°15'8 0.5
2017-May-18 08:08N 17°40' W 063°08'312.9
2017-May-18 07:54N 17°42' W 063°10'512.7
2017-May-18 07:30N 17°44' W 063°15'1013.7
2017-May-18 06:46N 17°48' W 063°25'1016.0
2017-May-18 06:11N 17°52' W 063°34'315.6
2017-May-18 06:00N 17°53' W 063°37'103 5.7
2017-May-17 12:00N 18°30' W 065°18'34419.1 090 / 221017.010.8 25.023.529.0
2017-May-16 18:00N 21°48' W 070°18'   030 / 281017.1 25.0 28.5

Dump ship's entire track history